Time;durP1;ratioP1;P1;durP2;ratioP2;P2;SDS_P1;SDS_P2;PMS_P1;PMS_P2;Temp;Humidity;BMP_temperature;BMP_pressure;BME280_temperature;BME280_humidity;BME280_pressure;Samples;Min_cycle;Max_cycle;Signal;HPM_P1;HPM_P2
2022/08/28 00:00:23;;;;;;;16.40;5.88;;;;;;;;;;5026380;28;20183;-65
2022/08/28 00:02:49;;;;;;;20.92;6.43;;;;;;;;;;5024537;28;20194;-65
2022/08/28 00:05:18;;;;;;;24.50;5.90;;;;;;;;;;5030760;28;20225;-64
2022/08/28 00:07:43;;;;;;;13.85;5.85;;;;;;;;;;5028696;28;20190;-65
2022/08/28 00:10:11;;;;;;;13.52;6.03;;;;;;;;;;5031722;28;20239;-65
2022/08/28 00:12:38;;;;;;;13.32;6.03;;;;;;;;;;5028224;28;20197;-65
2022/08/28 00:15:08;;;;;;;18.30;6.55;;;;;;;;;;5026365;28;20689;-65
2022/08/28 00:17:34;;;;;;;22.67;7.28;;;;;;;;;;5020687;28;20197;-65
2022/08/28 00:19:59;;;;;;;18.70;6.47;;;;;;;;;;5022265;28;20701;-65
2022/08/28 00:22:25;;;;;;;19.60;6.53;;;;;;;;;;5025543;28;20201;-65
2022/08/28 00:24:50;;;;;;;17.80;6.55;;;;;;;;;;5025881;28;20241;-65
2022/08/28 00:29:59;;;;;;;16.58;6.30;;;;;;;;;;5029777;28;20189;-65
2022/08/28 00:32:25;;;;;;;16.45;6.22;;;;;;;;;;5026873;28;20203;-65
2022/08/28 00:34:51;;;;;;;14.10;6.53;;;;;;;;;;5029632;28;20197;-65
2022/08/28 00:37:17;;;;;;;16.27;6.07;;;;;;;;;;5022593;28;20186;-65
2022/08/28 00:39:42;;;;;;;15.60;6.60;;;;;;;;;;5016665;28;20646;-65
2022/08/28 00:42:09;;;;;;;20.25;6.53;;;;;;;;;;5025606;28;20646;-65
2022/08/28 00:44:35;;;;;;;17.02;7.25;;;;;;;;;;5030812;28;20198;-65
2022/08/28 00:47:01;;;;;;;15.60;6.28;;;;;;;;;;5026554;28;20210;-65
2022/08/28 00:49:34;;;;;;;17.20;5.63;;;;;;;;;;5019931;28;20264;-65
2022/08/28 00:52:04;;;;;;;18.20;6.00;;;;;;;;;;5020046;28;20253;-65
2022/08/28 00:54:32;;;;;;;13.23;6.10;;;;;;;;;;5019322;28;20230;-65
2022/08/28 00:57:00;;;;;;;18.88;6.63;;;;;;;;;;5019248;28;20667;-65
2022/08/28 00:59:26;;;;;;;16.83;6.60;;;;;;;;;;5023457;28;20178;-65
2022/08/28 01:01:55;;;;;;;17.13;5.65;;;;;;;;;;5017358;28;20216;-65
2022/08/28 01:04:22;;;;;;;13.35;5.38;;;;;;;;;;5029642;28;20508;-65
2022/08/28 01:06:52;;;;;;;15.38;6.38;;;;;;;;;;5021970;28;20214;-65
2022/08/28 01:09:19;;;;;;;13.00;5.53;;;;;;;;;;5029278;28;20189;-65
2022/08/28 01:11:47;;;;;;;11.10;4.95;;;;;;;;;;5028600;28;20185;-65
2022/08/28 01:14:16;;;;;;;13.13;5.82;;;;;;;;;;5010481;28;20213;-65
2022/08/28 01:16:42;;;;;;;17.15;5.78;;;;;;;;;;5015691;28;20218;-65
2022/08/28 01:19:16;;;;;;;16.70;5.38;;;;;;;;;;5012839;28;20642;-65
2022/08/28 01:22:03;;;;;;;16.80;5.28;;;;;;;;;;5026559;28;20186;-65
2022/08/28 01:24:30;;;;;;;14.68;6.15;;;;;;;;;;5016339;28;20639;-65
2022/08/28 01:26:55;;;;;;;13.95;5.00;;;;;;;;;;5020556;28;20182;-65
2022/08/28 01:29:20;;;;;;;14.52;5.30;;;;;;;;;;5011975;28;20529;-65
2022/08/28 01:31:47;;;;;;;17.60;6.22;;;;;;;;;;5023392;28;20220;-65
2022/08/28 01:34:13;;;;;;;18.55;5.30;;;;;;;;;;5023426;28;20268;-65
2022/08/28 01:36:38;;;;;;;14.30;6.45;;;;;;;;;;5020728;28;20195;-65
2022/08/28 01:39:16;;;;;;;15.00;5.10;;;;;;;;;;5022765;28;20654;-65
2022/08/28 01:41:46;;;;;;;12.90;5.15;;;;;;;;;;5025422;28;20189;-65
2022/08/28 01:44:14;;;;;;;14.13;6.00;;;;;;;;;;5021620;28;20218;-65
2022/08/28 01:46:41;;;;;;;12.55;4.70;;;;;;;;;;5022880;28;20197;-65
2022/08/28 01:49:08;;;;;;;14.63;4.97;;;;;;;;;;5018938;28;20417;-65
2022/08/28 01:51:34;;;;;;;16.58;6.10;;;;;;;;;;5024826;28;20285;-65
2022/08/28 01:53:59;;;;;;;14.75;5.35;;;;;;;;;;5017066;28;20313;-65
2022/08/28 01:56:25;;;;;;;16.52;4.78;;;;;;;;;;5017491;28;20213;-65
2022/08/28 01:58:51;;;;;;;15.07;5.93;;;;;;;;;;5011114;28;20195;-65
2022/08/28 02:01:19;;;;;;;11.57;5.20;;;;;;;;;;5020653;28;20181;-65
2022/08/28 02:03:45;;;;;;;12.20;5.57;;;;;;;;;;5015044;28;20228;-65
2022/08/28 02:06:11;;;;;;;13.23;5.28;;;;;;;;;;5024477;28;20186;-65
2022/08/28 02:08:36;;;;;;;17.25;5.43;;;;;;;;;;5021891;28;20552;-65
2022/08/28 02:11:05;;;;;;;16.05;5.45;;;;;;;;;;5024741;28;20308;-65
2022/08/28 02:13:31;;;;;;;11.90;5.38;;;;;;;;;;5025138;28;20493;-65
2022/08/28 02:15:56;;;;;;;19.65;5.78;;;;;;;;;;5027500;28;20701;-65
2022/08/28 02:18:21;;;;;;;13.00;5.07;;;;;;;;;;5021815;28;20313;-65
2022/08/28 02:20:47;;;;;;;12.23;5.15;;;;;;;;;;5023823;28;20357;-65
2022/08/28 02:23:12;;;;;;;11.48;5.43;;;;;;;;;;5018358;28;20714;-65
2022/08/28 02:25:38;;;;;;;14.45;5.10;;;;;;;;;;5019497;28;20759;-65
2022/08/28 02:28:03;;;;;;;12.85;4.95;;;;;;;;;;5023576;28;20183;-65
2022/08/28 02:30:29;;;;;;;13.30;4.75;;;;;;;;;;5018466;28;20187;-65
2022/08/28 02:32:55;;;;;;;16.52;5.57;;;;;;;;;;5018447;28;20233;-65
2022/08/28 02:35:21;;;;;;;12.90;5.20;;;;;;;;;;5018231;28;20280;-65
2022/08/28 02:37:48;;;;;;;12.43;5.00;;;;;;;;;;5021700;28;20317;-65
2022/08/28 02:40:16;;;;;;;14.43;5.63;;;;;;;;;;5018734;28;20186;-65
2022/08/28 02:42:41;;;;;;;11.80;5.15;;;;;;;;;;5021246;28;20667;-65
2022/08/28 02:45:10;;;;;;;13.13;4.50;;;;;;;;;;5019067;28;20182;-65
2022/08/28 02:47:36;;;;;;;14.35;5.00;;;;;;;;;;5015586;28;20616;-65
2022/08/28 02:50:02;;;;;;;9.18;5.03;;;;;;;;;;5011719;28;20547;-65
2022/08/28 02:52:27;;;;;;;14.15;5.20;;;;;;;;;;5020544;28;20804;-65
2022/08/28 02:54:53;;;;;;;14.07;5.63;;;;;;;;;;5010161;28;20207;-65
2022/08/28 02:57:18;;;;;;;14.50;4.85;;;;;;;;;;5023054;28;20182;-65
2022/08/28 02:59:44;;;;;;;12.23;4.53;;;;;;;;;;5023000;28;20701;-65
2022/08/28 03:02:09;;;;;;;12.80;4.93;;;;;;;;;;5025512;28;20270;-65
2022/08/28 03:04:36;;;;;;;11.65;4.55;;;;;;;;;;5025132;28;20589;-65
2022/08/28 03:07:03;;;;;;;16.33;5.82;;;;;;;;;;5025092;28;20317;-65
2022/08/28 03:09:29;;;;;;;15.77;5.07;;;;;;;;;;5019815;28;20190;-65
2022/08/28 03:11:54;;;;;;;10.02;4.90;;;;;;;;;;5028000;28;20273;-65
2022/08/28 03:14:20;;;;;;;13.82;5.05;;;;;;;;;;5029299;28;20209;-65
2022/08/28 03:16:46;;;;;;;14.13;5.50;;;;;;;;;;5026501;28;20702;-65
2022/08/28 03:19:11;;;;;;;11.95;4.78;;;;;;;;;;5010655;28;20700;-65
2022/08/28 03:21:37;;;;;;;13.13;4.95;;;;;;;;;;5026072;28;20599;-65
2022/08/28 03:24:03;;;;;;;11.57;4.95;;;;;;;;;;5021758;28;20689;-66
2022/08/28 03:26:28;;;;;;;16.30;5.22;;;;;;;;;;5019668;28;20186;-65
2022/08/28 03:28:54;;;;;;;11.75;4.70;;;;;;;;;;5022995;28;20221;-65
2022/08/28 03:31:22;;;;;;;14.13;5.22;;;;;;;;;;5020744;28;20207;-65
2022/08/28 03:33:48;;;;;;;12.90;5.25;;;;;;;;;;5015668;28;20205;-65
2022/08/28 03:36:17;;;;;;;12.40;5.75;;;;;;;;;;5029802;28;20273;-65
2022/08/28 03:38:42;;;;;;;8.00;4.32;;;;;;;;;;5016781;28;20206;-65
2022/08/28 03:41:14;;;;;;;11.40;4.80;;;;;;;;;;5030874;28;20633;-65
2022/08/28 03:43:40;;;;;;;13.95;4.90;;;;;;;;;;5014834;28;20211;-65
2022/08/28 03:46:07;;;;;;;13.60;5.47;;;;;;;;;;5025762;28;20187;-65
2022/08/28 03:48:36;;;;;;;10.50;4.80;;;;;;;;;;5014403;28;20641;-65
2022/08/28 03:51:09;;;;;;;9.57;4.55;;;;;;;;;;5018582;28;20198;-65
2022/08/28 03:53:34;;;;;;;13.27;4.88;;;;;;;;;;5012778;28;20194;-65
2022/08/28 03:56:00;;;;;;;10.07;4.93;;;;;;;;;;5017193;28;20534;-65
2022/08/28 03:58:25;;;;;;;14.82;4.80;;;;;;;;;;5016225;28;20240;-65
2022/08/28 04:00:51;;;;;;;11.57;5.30;;;;;;;;;;5021409;28;20193;-65
2022/08/28 04:03:17;;;;;;;7.53;4.32;;;;;;;;;;5019863;28;20530;-65
2022/08/28 04:05:44;;;;;;;12.82;5.00;;;;;;;;;;5028377;28;20267;-65
2022/08/28 04:08:15;;;;;;;10.73;4.78;;;;;;;;;;5016371;28;20321;-65
2022/08/28 04:10:42;;;;;;;9.75;4.60;;;;;;;;;;5018903;28;20274;-65
2022/08/28 04:13:08;;;;;;;10.80;5.13;;;;;;;;;;5014324;28;20561;-65
2022/08/28 04:15:34;;;;;;;14.73;4.88;;;;;;;;;;5017021;28;20182;-65
2022/08/28 04:17:59;;;;;;;8.48;4.53;;;;;;;;;;5017078;28;20244;-65
2022/08/28 04:20:26;;;;;;;10.75;5.00;;;;;;;;;;5018838;28;20761;-65
2022/08/28 04:22:51;;;;;;;14.25;4.95;;;;;;;;;;5011906;28;20204;-65
2022/08/28 04:25:17;;;;;;;25.98;5.28;;;;;;;;;;5018987;28;20226;-65
2022/08/28 04:27:42;;;;;;;14.98;4.80;;;;;;;;;;5017786;28;20643;-65
2022/08/28 04:30:09;;;;;;;11.65;4.88;;;;;;;;;;5020960;28;20189;-65
2022/08/28 04:32:36;;;;;;;17.10;5.55;;;;;;;;;;5026268;28;20216;-65
2022/08/28 04:35:04;;;;;;;8.70;4.78;;;;;;;;;;5015325;28;20183;-65
2022/08/28 04:37:30;;;;;;;13.75;4.97;;;;;;;;;;5019696;28;20202;-65
2022/08/28 04:39:55;;;;;;;14.32;5.53;;;;;;;;;;5017278;28;20239;-66
2022/08/28 04:42:21;;;;;;;11.80;4.88;;;;;;;;;;5025945;28;20186;-66
2022/08/28 04:44:46;;;;;;;13.77;4.60;;;;;;;;;;5026736;28;20221;-66
2022/08/28 04:47:12;;;;;;;11.30;4.97;;;;;;;;;;5021495;28;20262;-66
2022/08/28 04:49:37;;;;;;;12.75;5.50;;;;;;;;;;5024849;28;20206;-66
2022/08/28 04:52:03;;;;;;;13.13;5.45;;;;;;;;;;5021780;28;20213;-65
2022/08/28 04:54:33;;;;;;;15.57;5.30;;;;;;;;;;5025495;28;20341;-65
2022/08/28 04:56:59;;;;;;;11.32;4.97;;;;;;;;;;5028112;28;20549;-65
2022/08/28 04:59:26;;;;;;;12.75;5.82;;;;;;;;;;5023165;28;20186;-66
2022/08/28 05:01:51;;;;;;;12.90;5.47;;;;;;;;;;5026934;28;20261;-66
2022/08/28 05:04:18;;;;;;;12.60;5.55;;;;;;;;;;5024135;28;20360;-66
2022/08/28 05:06:45;;;;;;;11.20;5.57;;;;;;;;;;5026815;28;20182;-66
2022/08/28 05:09:12;;;;;;;13.05;5.82;;;;;;;;;;5022993;28;20255;-66
2022/08/28 05:11:38;;;;;;;10.85;5.25;;;;;;;;;;5015028;28;20234;-66
2022/08/28 05:14:06;;;;;;;12.02;5.45;;;;;;;;;;5022462;28;20637;-66
2022/08/28 05:16:38;;;;;;;9.43;5.40;;;;;;;;;;5024463;28;20241;-66
2022/08/28 05:19:04;;;;;;;10.57;4.80;;;;;;;;;;5019927;28;20231;-66
2022/08/28 05:21:30;;;;;;;11.88;4.63;;;;;;;;;;5022830;28;20638;-66
2022/08/28 05:23:56;;;;;;;16.17;5.15;;;;;;;;;;5018524;28;20207;-66
2022/08/28 05:26:22;;;;;;;10.57;5.22;;;;;;;;;;5027249;28;20201;-65
2022/08/28 05:28:48;;;;;;;16.58;5.72;;;;;;;;;;5021420;28;20399;-66
2022/08/28 05:31:16;;;;;;;13.05;4.65;;;;;;;;;;5034562;28;20197;-66
2022/08/28 05:33:43;;;;;;;11.15;5.28;;;;;;;;;;5033692;28;20174;-66
2022/08/28 05:36:09;;;;;;;16.63;5.13;;;;;;;;;;5029899;28;20186;-66
2022/08/28 05:38:34;;;;;;;12.18;5.50;;;;;;;;;;5019372;28;20213;-66
2022/08/28 05:41:02;;;;;;;13.05;5.18;;;;;;;;;;5021513;28;20259;-66
2022/08/28 05:43:28;;;;;;;14.95;6.35;;;;;;;;;;5018830;28;20190;-66
2022/08/28 05:45:59;;;;;;;14.60;5.20;;;;;;;;;;5028745;28;20190;-66
2022/08/28 05:48:30;;;;;;;14.23;5.55;;;;;;;;;;5021390;28;20277;-66
2022/08/28 05:51:05;;;;;;;10.50;4.43;;;;;;;;;;5028955;28;20186;-66
2022/08/28 05:53:33;;;;;;;21.13;5.30;;;;;;;;;;5027739;28;20181;-66
2022/08/28 05:55:59;;;;;;;15.07;4.53;;;;;;;;;;5028548;28;20182;-66
2022/08/28 05:58:30;;;;;;;13.70;4.20;;;;;;;;;;5028937;28;20274;-66
2022/08/28 06:01:19;;;;;;;11.73;4.97;;;;;;;;;;5018124;28;20190;-66
2022/08/28 06:03:54;;;;;;;8.70;4.50;;;;;;;;;;5021459;28;20194;-66
2022/08/28 06:06:20;;;;;;;15.23;4.53;;;;;;;;;;5026191;28;20174;-66
2022/08/28 06:08:46;;;;;;;12.10;4.22;;;;;;;;;;5025726;28;20197;-66
2022/08/28 06:11:11;;;;;;;13.32;4.13;;;;;;;;;;5024373;28;20555;-66
2022/08/28 06:13:37;;;;;;;14.32;4.55;;;;;;;;;;5022785;28;20546;-66
2022/08/28 06:16:03;;;;;;;12.95;4.65;;;;;;;;;;5023183;28;20226;-66
2022/08/28 06:18:28;;;;;;;12.88;3.70;;;;;;;;;;5020110;28;20290;-66
2022/08/28 06:20:53;;;;;;;15.35;4.10;;;;;;;;;;5022260;28;20221;-66
2022/08/28 06:23:21;;;;;;;7.18;3.33;;;;;;;;;;5025370;28;20201;-66
2022/08/28 06:25:49;;;;;;;8.70;3.47;;;;;;;;;;5024467;28;20536;-66
2022/08/28 06:28:22;;;;;;;11.57;4.60;;;;;;;;;;5027443;28;20210;-66
2022/08/28 06:30:49;;;;;;;12.73;3.75;;;;;;;;;;5027002;28;20277;-66
2022/08/28 06:33:15;;;;;;;15.10;3.88;;;;;;;;;;5031041;28;20260;-66
2022/08/28 06:35:50;;;;;;;11.48;3.67;;;;;;;;;;5026726;28;20595;-66
2022/08/28 06:38:17;;;;;;;7.93;2.83;;;;;;;;;;5030745;28;20577;-66
2022/08/28 06:40:46;;;;;;;9.20;3.55;;;;;;;;;;5030905;28;20186;-67
2022/08/28 06:43:12;;;;;;;11.93;3.17;;;;;;;;;;5029787;28;20190;-66
2022/08/28 06:45:48;;;;;;;15.30;3.58;;;;;;;;;;5029903;28;20305;-66
2022/08/28 06:48:16;;;;;;;7.90;3.45;;;;;;;;;;5031174;28;20298;-66
2022/08/28 06:50:44;;;;;;;14.57;2.88;;;;;;;;;;5025247;28;20225;-67
2022/08/28 06:53:11;;;;;;;9.32;2.80;;;;;;;;;;5030196;28;20214;-67
2022/08/28 06:55:37;;;;;;;11.93;3.22;;;;;;;;;;5030312;28;20194;-67
2022/08/28 06:58:04;;;;;;;10.95;2.75;;;;;;;;;;5025677;28;20178;-67
2022/08/28 07:00:30;;;;;;;11.63;4.00;;;;;;;;;;5029090;28;20193;-67
2022/08/28 07:02:56;;;;;;;12.05;2.85;;;;;;;;;;5025625;28;20196;-67
2022/08/28 07:05:21;;;;;;;10.13;3.03;;;;;;;;;;5025160;28;20873;-67
2022/08/28 07:07:47;;;;;;;12.15;3.40;;;;;;;;;;5025437;28;20190;-67
2022/08/28 07:10:13;;;;;;;9.88;2.72;;;;;;;;;;5027455;28;20189;-66
2022/08/28 07:12:39;;;;;;;11.82;2.65;;;;;;;;;;5028293;28;20736;-67
2022/08/28 07:15:05;;;;;;;6.88;2.70;;;;;;;;;;5027553;28;20185;-67
2022/08/28 07:17:31;;;;;;;9.02;2.97;;;;;;;;;;5027205;28;20189;-67
2022/08/28 07:19:57;;;;;;;9.88;2.42;;;;;;;;;;5026295;28;20177;-66
2022/08/28 07:22:22;;;;;;;11.77;2.72;;;;;;;;;;5025468;28;20553;-67
2022/08/28 07:24:48;;;;;;;5.82;2.08;;;;;;;;;;5027887;28;20798;-67
2022/08/28 07:27:13;;;;;;;8.93;2.00;;;;;;;;;;5035097;28;20186;-66
2022/08/28 07:29:39;;;;;;;7.55;2.17;;;;;;;;;;5029383;28;20264;-67
2022/08/28 07:32:04;;;;;;;7.43;2.63;;;;;;;;;;5029805;28;20194;-67
2022/08/28 07:34:30;;;;;;;8.48;2.33;;;;;;;;;;5029332;28;20719;-67
2022/08/28 07:36:57;;;;;;;7.95;2.13;;;;;;;;;;5028737;28;20178;-67
2022/08/28 07:39:23;;;;;;;10.10;2.28;;;;;;;;;;5028878;28;20645;-65
2022/08/28 07:41:49;;;;;;;9.70;2.22;;;;;;;;;;5032855;28;20193;-67
2022/08/28 07:47:02;;;;;;;6.95;2.35;;;;;;;;;;5028397;28;20204;-66
2022/08/28 07:49:28;;;;;;;6.85;2.25;;;;;;;;;;5026522;28;20215;-66
2022/08/28 07:51:54;;;;;;;4.63;2.08;;;;;;;;;;5025246;28;20236;-66
2022/08/28 07:54:19;;;;;;;10.13;2.20;;;;;;;;;;5029765;28;20269;-67
2022/08/28 07:56:45;;;;;;;7.75;2.22;;;;;;;;;;5027132;28;20688;-66
2022/08/28 07:59:11;;;;;;;11.00;2.28;;;;;;;;;;5029788;28;20182;-66
2022/08/28 08:01:39;;;;;;;8.07;1.88;;;;;;;;;;5029285;28;20200;-68
2022/08/28 08:04:08;;;;;;;8.30;1.80;;;;;;;;;;5026764;28;20301;-66
2022/08/28 08:06:36;;;;;;;11.20;2.42;;;;;;;;;;5031003;28;20645;-66
2022/08/28 08:09:03;;;;;;;5.15;2.20;;;;;;;;;;5026939;28;20194;-66
2022/08/28 08:11:29;;;;;;;7.45;2.10;;;;;;;;;;5026769;28;20240;-66
2022/08/28 08:13:55;;;;;;;9.30;2.70;;;;;;;;;;5030359;28;20537;-66
2022/08/28 08:16:22;;;;;;;11.50;1.80;;;;;;;;;;5026331;28;20190;-66
2022/08/28 08:18:49;;;;;;;12.70;2.08;;;;;;;;;;5030125;28;20235;-73
2022/08/28 08:21:17;;;;;;;6.28;1.80;;;;;;;;;;5025112;28;20185;-66
2022/08/28 08:23:42;;;;;;;10.20;1.83;;;;;;;;;;5027787;28;20189;-66
2022/08/28 08:26:11;;;;;;;7.40;1.65;;;;;;;;;;4991986;28;1043117;-66
2022/08/28 08:28:38;;;;;;;8.65;1.95;;;;;;;;;;5028881;28;20194;-71
2022/08/28 08:31:11;;;;;;;12.27;2.15;;;;;;;;;;5025720;28;20182;-69
2022/08/28 08:33:39;;;;;;;9.95;2.17;;;;;;;;;;5021625;28;20183;-69
2022/08/28 08:36:06;;;;;;;7.90;1.67;;;;;;;;;;5021868;28;20190;-70
2022/08/28 08:38:32;;;;;;;7.15;1.90;;;;;;;;;;5021458;28;20209;-67
2022/08/28 08:41:00;;;;;;;10.13;1.95;;;;;;;;;;5027076;28;20201;-68
2022/08/28 08:43:28;;;;;;;6.90;1.25;;;;;;;;;;5025337;28;20190;-66
2022/08/28 08:45:53;;;;;;;7.57;1.25;;;;;;;;;;5021691;28;20260;-67
2022/08/28 08:48:30;;;;;;;6.45;1.52;;;;;;;;;;5021626;28;20182;-66
2022/08/28 08:51:11;;;;;;;10.05;1.63;;;;;;;;;;5019013;28;20184;-66
2022/08/28 08:53:50;;;;;;;6.57;1.52;;;;;;;;;;5032068;28;20538;-68
2022/08/28 08:56:20;;;;;;;9.90;1.52;;;;;;;;;;5027001;28;20177;-67
2022/08/28 08:58:50;;;;;;;8.82;1.45;;;;;;;;;;5027455;28;20186;-67
2022/08/28 09:01:35;;;;;;;7.15;1.48;;;;;;;;;;5024037;28;20201;-66
2022/08/28 09:04:25;;;;;;;5.30;1.80;;;;;;;;;;5028903;28;20218;-66
2022/08/28 09:06:55;;;;;;;6.22;1.55;;;;;;;;;;5027346;28;20181;-65
2022/08/28 09:09:33;;;;;;;5.88;1.52;;;;;;;;;;5026841;28;20186;-66
2022/08/28 09:12:04;;;;;;;4.75;1.30;;;;;;;;;;5025977;28;20193;-66
2022/08/28 09:14:49;;;;;;;10.40;1.67;;;;;;;;;;5025506;28;20170;-65
2022/08/28 09:17:18;;;;;;;4.80;1.48;;;;;;;;;;5026768;28;20197;-66
2022/08/28 09:19:43;;;;;;;4.13;1.23;;;;;;;;;;5024706;28;20203;-67
2022/08/28 09:22:09;;;;;;;7.70;1.77;;;;;;;;;;5026700;28;20189;-66
2022/08/28 09:24:35;;;;;;;5.63;1.40;;;;;;;;;;5024235;28;20241;-66
2022/08/28 09:27:24;;;;;;;6.82;1.80;;;;;;;;;;5024223;28;20181;-66
2022/08/28 09:30:03;;;;;;;9.20;1.40;;;;;;;;;;5019076;28;20194;-66
2022/08/28 09:32:28;;;;;;;5.97;1.58;;;;;;;;;;5023761;28;20627;-72
2022/08/28 09:35:23;;;;;;;4.93;1.42;;;;;;;;;;5015867;28;20183;-68
2022/08/28 09:37:49;;;;;;;4.43;1.40;;;;;;;;;;5019700;28;20202;-67
2022/08/28 09:40:26;;;;;;;6.93;1.88;;;;;;;;;;5022379;28;20336;-67
2022/08/28 09:43:27;;;;;;;5.55;1.17;;;;;;;;;;5033983;28;20273;-66
2022/08/28 09:45:58;;;;;;;6.45;1.50;;;;;;;;;;4999566;28;20281;-68
2022/08/28 09:48:37;;;;;;;3.35;1.40;;;;;;;;;;5014089;28;20646;-66
2022/08/28 09:51:07;;;;;;;3.45;1.23;;;;;;;;;;5021071;28;20196;-67
2022/08/28 09:53:39;;;;;;;7.20;1.50;;;;;;;;;;5018075;28;20221;-69
2022/08/28 09:56:19;;;;;;;6.25;1.27;;;;;;;;;;5020837;28;20197;-68
2022/08/28 09:58:49;;;;;;;6.22;1.48;;;;;;;;;;5023066;28;20308;-66
2022/08/28 10:01:27;;;;;;;5.40;1.20;;;;;;;;;;5022954;28;20505;-67
2022/08/28 10:04:15;;;;;;;8.50;1.73;;;;;;;;;;5023179;28;20187;-68
2022/08/28 10:06:51;;;;;;;8.02;1.27;;;;;;;;;;5020602;28;20657;-66
2022/08/28 10:09:42;;;;;;;8.02;1.67;;;;;;;;;;5021601;28;20188;-69
2022/08/28 10:12:28;;;;;;;7.38;1.65;;;;;;;;;;5025229;28;20194;-67
2022/08/28 10:15:12;;;;;;;5.93;1.30;;;;;;;;;;5021885;28;20178;-66
2022/08/28 10:17:50;;;;;;;4.80;1.40;;;;;;;;;;5017432;28;20186;-73
2022/08/28 10:20:32;;;;;;;5.03;1.55;;;;;;;;;;5020493;28;20598;-67
2022/08/28 10:23:39;;;;;;;5.90;1.63;;;;;;;;;;5022564;28;20272;-67
2022/08/28 10:26:28;;;;;;;4.90;1.35;;;;;;;;;;5021762;28;20232;-67
2022/08/28 10:28:56;;;;;;;4.72;1.50;;;;;;;;;;5026275;28;20182;-66
2022/08/28 10:31:47;;;;;;;3.25;1.38;;;;;;;;;;5018274;28;20214;-67
2022/08/28 10:34:57;;;;;;;4.22;1.30;;;;;;;;;;5019501;28;20230;-67
2022/08/28 10:37:44;;;;;;;4.10;1.23;;;;;;;;;;5016257;28;20198;-66
2022/08/28 10:40:36;;;;;;;5.28;1.50;;;;;;;;;;5023632;28;20184;-68
2022/08/28 10:43:08;;;;;;;6.95;1.52;;;;;;;;;;5023134;28;20662;-65
2022/08/28 10:45:34;;;;;;;4.32;1.30;;;;;;;;;;5020935;28;20661;-66
2022/08/28 10:48:07;;;;;;;6.18;1.63;;;;;;;;;;5021258;28;20236;-65
2022/08/28 10:50:55;;;;;;;5.28;1.30;;;;;;;;;;5019930;28;20228;-66
2022/08/28 10:53:40;;;;;;;3.83;1.58;;;;;;;;;;5021983;28;20183;-69
2022/08/28 10:56:19;;;;;;;3.15;1.33;;;;;;;;;;5022062;28;20273;-71
2022/08/28 10:58:47;;;;;;;6.25;1.38;;;;;;;;;;5015268;28;20277;-68
2022/08/28 11:01:24;;;;;;;5.22;1.70;;;;;;;;;;5015758;28;20235;-67
2022/08/28 11:03:50;;;;;;;4.25;1.42;;;;;;;;;;5017188;28;20639;-67
2022/08/28 11:06:24;;;;;;;4.97;1.73;;;;;;;;;;5012125;28;20189;-67
2022/08/28 11:08:55;;;;;;;6.70;1.70;;;;;;;;;;5016737;28;20178;-66
2022/08/28 11:11:43;;;;;;;4.03;1.35;;;;;;;;;;5017165;28;20187;-67
2022/08/28 11:14:25;;;;;;;4.05;1.15;;;;;;;;;;5016767;28;20308;-72
2022/08/28 11:16:51;;;;;;;4.88;1.25;;;;;;;;;;5012199;28;20220;-71
2022/08/28 11:19:35;;;;;;;5.32;1.70;;;;;;;;;;5020095;28;20182;-71
2022/08/28 11:22:25;;;;;;;5.53;1.40;;;;;;;;;;5019273;28;20235;-66
2022/08/28 11:25:23;;;;;;;6.10;1.45;;;;;;;;;;5017315;28;20226;-67
2022/08/28 11:28:24;;;;;;;6.35;1.50;;;;;;;;;;5018709;28;20568;-68
2022/08/28 11:31:04;;;;;;;4.68;1.58;;;;;;;;;;4996408;28;20206;-65
2022/08/28 11:33:40;;;;;;;4.43;1.17;;;;;;;;;;5017713;28;20189;-66
2022/08/28 11:36:28;;;;;;;4.38;1.58;;;;;;;;;;5025961;28;20550;-65
2022/08/28 11:38:53;;;;;;;2.42;1.00;;;;;;;;;;5009319;28;20194;-69
2022/08/28 11:41:26;;;;;;;3.20;1.38;;;;;;;;;;5019386;28;20193;-67
2022/08/28 11:44:09;;;;;;;3.88;1.75;;;;;;;;;;5021813;28;20206;-65
2022/08/28 11:46:38;;;;;;;3.45;1.30;;;;;;;;;;5020389;28;20288;-67
2022/08/28 11:49:32;;;;;;;5.05;1.40;;;;;;;;;;5023897;28;20261;-65
2022/08/28 11:52:19;;;;;;;4.45;1.38;;;;;;;;;;5019622;28;20248;-66
2022/08/28 11:54:48;;;;;;;4.93;1.27;;;;;;;;;;5024299;28;20560;-67
2022/08/28 11:57:23;;;;;;;7.18;1.60;;;;;;;;;;5019218;28;20186;-66
2022/08/28 12:00:05;;;;;;;5.38;1.42;;;;;;;;;;5020347;28;20643;-66
2022/08/28 12:02:36;;;;;;;6.30;1.80;;;;;;;;;;5035928;28;20194;-73
2022/08/28 12:05:05;;;;;;;3.75;1.48;;;;;;;;;;5018194;28;20341;-66
2022/08/28 12:07:36;;;;;;;8.73;1.80;;;;;;;;;;5016676;28;20191;-67
2022/08/28 12:10:21;;;;;;;5.13;1.30;;;;;;;;;;5018033;28;20554;-71
2022/08/28 12:12:48;;;;;;;2.97;1.70;;;;;;;;;;5017795;28;20592;-65
2022/08/28 12:15:26;;;;;;;4.45;1.63;;;;;;;;;;5016846;28;20607;-66
2022/08/28 12:18:12;;;;;;;5.40;1.88;;;;;;;;;;5017517;28;20246;-66
2022/08/28 12:20:50;;;;;;;5.57;1.40;;;;;;;;;;5013931;28;20198;-67
2022/08/28 12:23:39;;;;;;;3.20;1.58;;;;;;;;;;5017053;28;20248;-68
2022/08/28 12:26:09;;;;;;;4.60;1.50;;;;;;;;;;5015726;28;20248;-67
2022/08/28 12:28:54;;;;;;;5.32;1.45;;;;;;;;;;5015948;28;20182;-68
2022/08/28 12:35:04;;;;;;;5.25;1.75;;;;;;;;;;5021968;28;20205;-65
2022/08/28 12:37:57;;;;;;;4.80;1.50;;;;;;;;;;5014707;28;20233;-68
2022/08/28 12:40:26;;;;;;;7.68;1.50;;;;;;;;;;5018292;28;20190;-66
2022/08/28 12:43:01;;;;;;;5.63;1.70;;;;;;;;;;5021269;28;20760;-68
2022/08/28 12:45:34;;;;;;;4.15;1.67;;;;;;;;;;5015453;28;20502;-66
2022/08/28 12:48:03;;;;;;;4.00;1.75;;;;;;;;;;5010720;28;20194;-66
2022/08/28 12:50:38;;;;;;;3.72;1.45;;;;;;;;;;5018636;28;20243;-67
2022/08/28 12:53:09;;;;;;;3.17;1.60;;;;;;;;;;5013452;28;20328;-68
2022/08/28 12:55:36;;;;;;;6.30;2.35;;;;;;;;;;5015656;28;20186;-67
2022/08/28 12:58:02;;;;;;;6.88;2.33;;;;;;;;;;5018412;28;20769;-66
2022/08/28 13:00:33;;;;;;;4.95;1.90;;;;;;;;;;5016428;28;20292;-66
2022/08/28 13:03:00;;;;;;;5.53;1.52;;;;;;;;;;5021068;28;20230;-68
2022/08/28 13:05:33;;;;;;;4.53;1.70;;;;;;;;;;5018073;28;20210;-66
2022/08/28 13:08:03;;;;;;;2.95;1.42;;;;;;;;;;5020330;28;20733;-68
2022/08/28 13:10:32;;;;;;;10.52;2.25;;;;;;;;;;5014663;28;20182;-67
2022/08/28 13:13:09;;;;;;;7.13;1.90;;;;;;;;;;5019323;28;20189;-69
2022/08/28 13:15:56;;;;;;;4.85;1.52;;;;;;;;;;5021560;28;20182;-67
2022/08/28 13:18:50;;;;;;;4.90;1.70;;;;;;;;;;5016215;28;20249;-68
2022/08/28 13:21:18;;;;;;;4.65;1.50;;;;;;;;;;5018372;28;20176;-67
2022/08/28 13:23:45;;;;;;;4.88;2.03;;;;;;;;;;5016114;28;20182;-71
2022/08/28 13:26:11;;;;;;;6.53;1.38;;;;;;;;;;5021268;28;20312;-68
2022/08/28 13:28:40;;;;;;;6.75;2.05;;;;;;;;;;5023985;28;20186;-68
2022/08/28 13:31:07;;;;;;;3.40;1.48;;;;;;;;;;5022900;28;20202;-66
2022/08/28 13:33:33;;;;;;;5.65;1.65;;;;;;;;;;5018694;28;20211;-66
2022/08/28 13:36:19;;;;;;;3.50;1.60;;;;;;;;;;5019088;28;20253;-66
2022/08/28 13:38:44;;;;;;;3.78;1.58;;;;;;;;;;5017713;28;20284;-74
2022/08/28 13:41:11;;;;;;;2.67;1.17;;;;;;;;;;5020008;28;20265;-67
2022/08/28 13:43:46;;;;;;;6.35;1.42;;;;;;;;;;5016974;28;20273;-64
2022/08/28 13:46:12;;;;;;;2.75;1.60;;;;;;;;;;5019097;28;20205;-66
2022/08/28 13:48:37;;;;;;;2.85;1.52;;;;;;;;;;5017086;28;20671;-67
2022/08/28 13:51:06;;;;;;;6.03;1.55;;;;;;;;;;5024516;28;20257;-72
2022/08/28 13:53:32;;;;;;;4.60;1.73;;;;;;;;;;5022521;28;20183;-66
2022/08/28 13:55:59;;;;;;;8.10;1.67;;;;;;;;;;5016410;28;20665;-69
2022/08/28 13:58:25;;;;;;;7.03;2.15;;;;;;;;;;5023943;28;20226;-66
2022/08/28 14:00:52;;;;;;;4.40;1.42;;;;;;;;;;5019623;28;20572;-65
2022/08/28 14:06:10;;;;;;;4.10;1.77;;;;;;;;;;5024520;28;20241;-66
2022/08/28 14:08:35;;;;;;;4.82;1.48;;;;;;;;;;5021209;28;20186;-68
2022/08/28 14:11:01;;;;;;;4.82;1.75;;;;;;;;;;5021795;28;20630;-64
2022/08/28 14:13:26;;;;;;;3.90;1.50;;;;;;;;;;5018191;28;20214;-66
2022/08/28 14:15:53;;;;;;;6.35;1.80;;;;;;;;;;5026165;28;20188;-66
2022/08/28 14:18:19;;;;;;;3.33;1.25;;;;;;;;;;5018794;28;20182;-64
2022/08/28 14:20:45;;;;;;;5.03;1.50;;;;;;;;;;5016843;28;20566;-67
2022/08/28 14:23:10;;;;;;;3.65;1.63;;;;;;;;;;5015512;28;20213;-67
2022/08/28 14:25:43;;;;;;;3.60;1.30;;;;;;;;;;5017252;28;20252;-70
2022/08/28 14:28:10;;;;;;;2.63;1.30;;;;;;;;;;5016661;28;20182;-66
2022/08/28 14:30:47;;;;;;;5.68;1.90;;;;;;;;;;5020591;28;20182;-65
2022/08/28 14:33:15;;;;;;;3.58;1.50;;;;;;;;;;5021721;28;20708;-65
2022/08/28 14:35:42;;;;;;;3.50;1.75;;;;;;;;;;5016823;28;20189;-64
2022/08/28 14:38:08;;;;;;;3.40;1.40;;;;;;;;;;5019017;28;20455;-69
2022/08/28 14:40:38;;;;;;;3.17;1.23;;;;;;;;;;5012326;28;20185;-67
2022/08/28 14:43:10;;;;;;;5.63;1.63;;;;;;;;;;5016577;28;20194;-67
2022/08/28 14:45:48;;;;;;;6.22;1.70;;;;;;;;;;5018061;28;20667;-67
2022/08/28 14:48:14;;;;;;;4.13;1.60;;;;;;;;;;5016284;28;20186;-68
2022/08/28 14:50:41;;;;;;;6.47;1.50;;;;;;;;;;5019790;28;20237;-69
2022/08/28 14:53:07;;;;;;;3.45;1.60;;;;;;;;;;5017679;28;20188;-76
2022/08/28 14:55:38;;;;;;;8.02;2.00;;;;;;;;;;5021091;28;20192;-66
2022/08/28 14:58:03;;;;;;;3.10;1.50;;;;;;;;;;5023755;28;20182;-70
2022/08/28 15:00:28;;;;;;;2.72;1.30;;;;;;;;;;5021293;28;20186;-67
2022/08/28 15:02:54;;;;;;;4.40;1.77;;;;;;;;;;5021437;28;20200;-67
2022/08/28 15:05:19;;;;;;;4.68;1.85;;;;;;;;;;5023096;28;20244;-69